Time;durP1;ratioP1;P1;durP2;ratioP2;P2;SDS_P1;SDS_P2;PMS_P1;PMS_P2;Temp;Humidity;BMP_temperature;BMP_pressure;BME280_temperature;BME280_humidity;BME280_pressure;Samples;Min_cycle;Max_cycle;Signal;HPM_P1;HPM_P2
2024/01/05 00:00:22;;;;;;;0.73;0.73;;;-0.10;99.90;;;;;;8245243;28;20282;-81
2024/01/05 00:04:23;;;;;;;1.10;0.70;;;-0.10;99.90;;;;;;8233504;28;20199;-81
2024/01/05 00:08:24;;;;;;;2.00;0.90;;;0.00;99.90;;;;;;8246228;28;20180;-82
2024/01/05 00:12:25;;;;;;;1.80;1.20;;;0.00;99.90;;;;;;8234042;28;20187;-81
2024/01/05 00:16:29;;;;;;;1.50;1.00;;;0.00;99.90;;;;;;8232144;28;20226;-81
2024/01/05 00:20:29;;;;;;;2.07;1.07;;;0.00;99.90;;;;;;8268470;28;20175;-81
2024/01/05 00:24:31;;;;;;;1.47;1.07;;;0.00;99.90;;;;;;8272208;28;20180;-81
2024/01/05 00:28:31;;;;;;;1.50;1.00;;;-0.10;99.90;;;;;;8279565;28;20192;-82
2024/01/05 00:32:32;;;;;;;1.23;0.90;;;-0.10;99.90;;;;;;8274566;28;20254;-82
2024/01/05 00:36:33;;;;;;;1.30;0.90;;;-0.20;99.90;;;;;;8278111;28;20231;-81
2024/01/05 00:40:34;;;;;;;1.67;0.90;;;-0.20;99.90;;;;;;8240162;28;20223;-82
2024/01/05 00:44:34;;;;;;;1.13;1.03;;;-0.10;99.90;;;;;;8239143;28;20199;-82
2024/01/05 00:48:35;;;;;;;1.77;1.20;;;-0.10;99.90;;;;;;8241120;28;20243;-82
2024/01/05 00:52:36;;;;;;;1.37;1.20;;;0.00;99.90;;;;;;8242562;28;20219;-82
2024/01/05 00:56:46;;;;;;;1.57;1.10;;;0.00;99.90;;;;;;8245930;28;20306;-81
2024/01/05 01:00:47;;;;;;;2.03;1.30;;;0.10;99.90;;;;;;8241324;28;20196;-81
2024/01/05 01:04:48;;;;;;;1.47;1.37;;;0.10;99.90;;;;;;8256105;28;20195;-81
2024/01/05 01:08:48;;;;;;;1.63;1.07;;;0.10;99.90;;;;;;8246898;28;20701;-81
2024/01/05 01:12:49;;;;;;;1.40;1.30;;;0.10;99.90;;;;;;8247618;28;20280;-82
2024/01/05 01:16:51;;;;;;;1.40;1.20;;;0.20;99.90;;;;;;8249692;28;20350;-82
2024/01/05 01:20:51;;;;;;;2.17;1.20;;;0.10;99.90;;;;;;8254186;28;21103;-82
2024/01/05 01:24:52;;;;;;;1.80;1.20;;;0.10;99.90;;;;;;8260202;28;20401;-82
2024/01/05 01:28:53;;;;;;;1.20;1.10;;;-0.10;99.90;;;;;;8265244;28;20188;-82
2024/01/05 01:32:54;;;;;;;1.67;1.27;;;-0.30;99.90;;;;;;8268762;28;20192;-82
2024/01/05 01:36:57;;;;;;;2.03;1.30;;;-0.50;99.90;;;;;;8250036;28;20273;-82
2024/01/05 01:40:58;;;;;;;1.43;1.10;;;-0.60;99.90;;;;;;8253106;28;20289;-82
2024/01/05 01:44:59;;;;;;;1.50;1.10;;;-0.70;99.90;;;;;;8249748;28;20196;-82
2024/01/05 01:49:02;;;;;;;1.77;1.40;;;-0.70;1.00;;;;;;8256807;28;20191;-82
2024/01/05 01:53:03;;;;;;;1.70;1.37;;;-0.60;1.00;;;;;;8266692;28;20223;-82
2024/01/05 01:57:07;;;;;;;2.97;1.57;;;-0.50;26.30;;;;;;8251729;28;20211;-82
2024/01/05 02:01:09;;;;;;;2.13;1.37;;;-0.40;92.70;;;;;;8265936;28;20203;-81
2024/01/05 02:05:17;;;;;;;2.23;1.20;;;-0.30;99.90;;;;;;8251857;28;20531;-82
2024/01/05 02:09:18;;;;;;;3.57;1.87;;;-0.30;99.90;;;;;;8258122;28;20214;-81
2024/01/05 02:13:19;;;;;;;5.63;2.80;;;-0.20;99.90;;;;;;8275187;28;20199;-82
2024/01/05 02:17:32;;;;;;;3.87;2.17;;;-0.20;99.90;;;;;;8257060;28;20316;-81
2024/01/05 02:21:42;;;;;;;2.33;1.30;;;-0.20;99.90;;;;;;8257997;28;20204;-81
2024/01/05 02:25:42;;;;;;;1.87;1.63;;;-0.20;99.90;;;;;;8257149;28;20291;-81
2024/01/05 02:29:43;;;;;;;1.93;1.50;;;-0.10;1.00;;;;;;8273188;28;20250;-81
2024/01/05 02:33:44;;;;;;;1.60;1.30;;;-0.10;99.90;;;;;;8276857;28;20463;-81
2024/01/05 02:37:45;;;;;;;2.90;1.93;;;0.00;1.00;;;;;;8275563;28;20211;-81
2024/01/05 02:41:46;;;;;;;2.73;1.87;;;0.10;1.00;;;;;;8263859;28;20272;-81
2024/01/05 02:45:46;;;;;;;3.23;2.20;;;0.10;99.90;;;;;;8279552;28;20211;-81
2024/01/05 02:49:47;;;;;;;3.10;2.10;;;0.20;99.90;;;;;;8267428;28;20196;-81
2024/01/05 02:53:48;;;;;;;4.83;2.23;;;0.20;99.90;;;;;;8261350;28;20223;-81
2024/01/05 02:57:49;;;;;;;3.00;2.07;;;0.20;99.90;;;;;;8274813;28;20183;-81
2024/01/05 03:01:50;;;;;;;4.77;2.70;;;0.20;99.90;;;;;;8257586;28;20206;-82
2024/01/05 03:05:53;;;;;;;4.17;2.47;;;0.30;99.90;;;;;;8247396;28;20211;-81
2024/01/05 03:09:53;;;;;;;3.73;2.33;;;0.30;99.90;;;;;;8242712;28;20187;-81
2024/01/05 03:13:54;;;;;;;4.10;2.43;;;0.30;99.90;;;;;;8244970;28;20199;-81
2024/01/05 03:17:55;;;;;;;3.60;2.73;;;0.30;99.90;;;;;;8259561;28;20218;-81
2024/01/05 03:21:56;;;;;;;3.73;1.93;;;0.30;99.90;;;;;;8272994;28;20259;-81
2024/01/05 03:25:57;;;;;;;3.60;2.63;;;0.20;99.90;;;;;;8277663;28;20180;-81
2024/01/05 03:29:59;;;;;;;4.00;2.47;;;0.20;99.90;;;;;;8294724;28;20248;-80
2024/01/05 03:33:59;;;;;;;2.30;1.93;;;0.20;99.90;;;;;;8276848;28;20188;-81
2024/01/05 03:38:00;;;;;;;2.77;2.00;;;0.20;99.90;;;;;;8273480;28;20238;-81
2024/01/05 03:42:01;;;;;;;3.03;2.03;;;0.20;99.90;;;;;;8236895;28;20192;-81
2024/01/05 03:46:02;;;;;;;3.77;2.40;;;0.30;99.90;;;;;;8235960;28;20191;-81
2024/01/05 03:50:03;;;;;;;3.83;2.23;;;0.40;99.90;;;;;;8254887;28;20195;-79
2024/01/05 03:54:04;;;;;;;3.10;2.30;;;0.50;20.60;;;;;;8250920;28;20188;-81
2024/01/05 03:58:06;;;;;;;4.03;2.93;;;0.60;1.00;;;;;;8248096;28;20247;-80
2024/01/05 04:02:07;;;;;;;4.47;2.70;;;0.60;1.00;;;;;;8255885;28;20733;-81
2024/01/05 04:06:17;;;;;;;4.10;2.60;;;0.60;1.00;;;;;;8249795;28;20195;-79
2024/01/05 04:10:18;;;;;;;3.97;2.80;;;0.60;99.90;;;;;;8234157;28;20196;-80
2024/01/05 04:14:18;;;;;;;5.67;2.47;;;0.60;99.90;;;;;;8232776;28;20218;-79
2024/01/05 04:18:19;;;;;;;3.67;2.37;;;0.60;99.90;;;;;;8235660;28;20204;-79
2024/01/05 04:22:20;;;;;;;4.20;3.00;;;0.60;99.90;;;;;;8231261;28;20199;-80
2024/01/05 04:26:21;;;;;;;3.37;2.63;;;0.60;99.90;;;;;;8241741;28;20203;-80
2024/01/05 04:30:22;;;;;;;3.60;2.63;;;0.60;99.90;;;;;;8238691;28;20207;-79
2024/01/05 04:34:23;;;;;;;2.93;2.33;;;0.60;99.90;;;;;;8244158;28;20212;-79
2024/01/05 04:38:23;;;;;;;3.37;2.70;;;0.70;99.90;;;;;;8265404;28;20192;-81
2024/01/05 04:42:28;;;;;;;4.17;2.87;;;0.70;99.90;;;;;;8261740;28;20184;-81
2024/01/05 04:46:29;;;;;;;3.97;2.83;;;0.70;99.90;;;;;;8257927;28;20204;-81
2024/01/05 04:50:32;;;;;;;3.67;2.63;;;0.70;99.90;;;;;;8253684;28;20188;-81
2024/01/05 04:54:33;;;;;;;2.57;2.03;;;0.70;99.90;;;;;;8273924;28;20259;-81
2024/01/05 04:58:34;;;;;;;3.17;2.10;;;0.70;99.90;;;;;;8257430;28;20211;-81
2024/01/05 05:02:35;;;;;;;3.57;2.33;;;0.70;99.90;;;;;;8250209;28;20232;-81
2024/01/05 05:06:35;;;;;;;3.43;2.50;;;0.70;99.90;;;;;;8253064;28;20188;-81
2024/01/05 05:10:37;;;;;;;4.00;2.93;;;0.70;99.90;;;;;;8239191;28;20212;-81
2024/01/05 05:14:38;;;;;;;2.73;2.33;;;0.80;94.90;;;;;;8253735;28;20226;-81
2024/01/05 05:18:39;;;;;;;3.57;2.50;;;0.80;77.30;;;;;;8254485;28;20266;-81
2024/01/05 05:22:43;;;;;;;3.27;2.07;;;0.80;57.70;;;;;;8251135;28;20188;-81
2024/01/05 05:26:43;;;;;;;3.27;1.90;;;0.80;45.40;;;;;;8251721;28;20275;-81
2024/01/05 05:30:44;;;;;;;2.30;2.03;;;0.80;38.20;;;;;;8262955;28;20195;-82
2024/01/05 05:34:45;;;;;;;4.13;2.27;;;0.80;30.80;;;;;;8268709;28;20207;-81
2024/01/05 05:38:45;;;;;;;3.63;2.40;;;0.80;32.20;;;;;;8247983;28;20206;-81
2024/01/05 05:42:46;;;;;;;6.40;4.30;;;0.70;31.90;;;;;;8248415;28;20282;-81
2024/01/05 05:46:47;;;;;;;7.73;3.10;;;0.70;30.40;;;;;;8248416;28;20184;-81
2024/01/05 05:50:48;;;;;;;7.33;3.77;;;0.70;30.10;;;;;;8253857;28;20192;-80
2024/01/05 05:54:48;;;;;;;3.57;2.50;;;0.80;28.90;;;;;;8248829;28;20613;-78
2024/01/05 05:58:49;;;;;;;5.87;3.30;;;0.80;28.90;;;;;;8247716;28;20219;-79
2024/01/05 06:02:50;;;;;;;6.80;3.80;;;0.80;27.70;;;;;;8240116;28;20203;-80
2024/01/05 06:06:54;;;;;;;9.00;5.13;;;0.80;26.90;;;;;;8239522;28;20254;-78
2024/01/05 06:10:54;;;;;;;6.80;4.43;;;0.80;26.70;;;;;;8252044;28;20192;-81
2024/01/05 06:14:58;;;;;;;11.20;6.13;;;0.80;27.40;;;;;;8276869;28;20238;-81
2024/01/05 06:18:59;;;;;;;17.33;7.23;;;0.80;31.10;;;;;;8276426;28;20188;-81
2024/01/05 06:23:00;;;;;;;22.47;10.57;;;0.80;31.00;;;;;;8261725;28;20198;-79
2024/01/05 06:27:00;;;;;;;15.30;7.27;;;0.90;30.60;;;;;;8258565;28;20188;-79
2024/01/05 06:31:05;;;;;;;11.47;5.20;;;0.90;31.50;;;;;;8258504;28;20198;-79
2024/01/05 06:35:07;;;;;;;15.77;7.67;;;0.80;31.70;;;;;;8256895;28;20222;-77
2024/01/05 06:39:07;;;;;;;17.73;9.47;;;0.80;34.40;;;;;;8239473;28;20212;-77
2024/01/05 06:43:08;;;;;;;45.07;24.20;;;0.80;37.80;;;;;;8234935;28;20191;-77
2024/01/05 06:47:09;;;;;;;15.73;9.33;;;0.80;39.70;;;;;;8255364;28;20187;-79
2024/01/05 06:51:10;;;;;;;12.50;6.70;;;0.80;44.80;;;;;;8242878;28;20202;-78
2024/01/05 06:55:10;;;;;;;8.20;6.77;;;0.90;46.80;;;;;;8241241;28;20223;-78
2024/01/05 06:59:11;;;;;;;13.50;7.43;;;0.80;53.50;;;;;;8246560;28;20263;-80
2024/01/05 07:03:12;;;;;;;17.90;11.30;;;0.80;58.90;;;;;;8242330;28;20215;-80
2024/01/05 07:07:13;;;;;;;18.13;12.93;;;0.80;63.90;;;;;;8255436;28;20242;-80
2024/01/05 07:11:23;;;;;;;20.43;13.37;;;0.80;74.40;;;;;;8242215;28;20214;-80
2024/01/05 07:15:24;;;;;;;37.20;15.53;;;0.80;75.80;;;;;;8240185;28;20223;-80
2024/01/05 07:19:25;;;;;;;30.13;20.27;;;0.90;71.60;;;;;;8251169;28;20239;-80
2024/01/05 07:23:25;;;;;;;54.87;27.80;;;0.90;67.70;;;;;;8258212;28;20184;-80
2024/01/05 07:27:26;;;;;;;21.73;6.57;;;1.00;59.70;;;;;;8266516;28;20227;-81
2024/01/05 07:31:27;;;;;;;22.33;11.77;;;1.00;55.20;;;;;;8240779;28;20230;-81
2024/01/05 07:35:28;;;;;;;17.17;11.47;;;1.00;53.70;;;;;;8257994;28;20214;-81
2024/01/05 07:39:29;;;;;;;18.70;7.67;;;1.10;47.70;;;;;;8248929;28;20199;-81
2024/01/05 07:43:33;;;;;;;10.57;5.50;;;1.10;43.90;;;;;;8238430;28;20196;-81
2024/01/05 07:47:34;;;;;;;7.97;5.10;;;1.10;45.40;;;;;;8247678;28;20192;-81
2024/01/05 07:51:35;;;;;;;27.43;17.50;;;1.10;46.50;;;;;;8234805;28;20279;-80
2024/01/05 07:55:36;;;;;;;38.50;17.03;;;1.10;59.50;;;;;;8235338;28;20238;-81
2024/01/05 07:59:37;;;;;;;29.50;14.57;;;1.20;66.70;;;;;;8261267;28;20479;-81
2024/01/05 08:03:40;;;;;;;25.30;14.17;;;1.20;74.70;;;;;;8250878;28;20196;-81
2024/01/05 08:07:44;;;;;;;61.37;29.37;;;1.20;66.20;;;;;;8231368;28;20516;-80
2024/01/05 08:11:45;;;;;;;23.50;13.47;;;1.30;76.10;;;;;;8235844;28;20311;-81
2024/01/05 08:15:46;;;;;;;23.90;13.10;;;1.30;69.80;;;;;;8254897;28;20227;-81
2024/01/05 08:19:47;;;;;;;18.30;9.53;;;1.40;63.80;;;;;;8249392;28;20199;-81
2024/01/05 08:23:48;;;;;;;37.20;22.23;;;1.40;51.70;;;;;;8254911;28;20188;-80
2024/01/05 08:27:48;;;;;;;13.40;8.97;;;1.40;46.80;;;;;;8251336;28;20198;-80
2024/01/05 08:31:49;;;;;;;21.67;10.97;;;1.50;49.00;;;;;;8237077;28;20195;-80
2024/01/05 08:35:53;;;;;;;28.07;13.83;;;1.50;45.40;;;;;;8248224;28;20218;-80
2024/01/05 08:39:57;;;;;;;21.57;13.03;;;1.70;39.50;;;;;;8240019;28;20256;-80
2024/01/05 08:43:58;;;;;;;43.97;22.53;;;1.90;26.30;;;;;;8233762;28;20188;-80
2024/01/05 08:47:59;;;;;;;51.53;28.73;;;2.00;23.70;;;;;;8240645;28;20192;-80
2024/01/05 08:52:02;;;;;;;23.90;12.13;;;2.10;18.60;;;;;;8260588;28;20172;-80
2024/01/05 08:56:03;;;;;;;19.83;10.17;;;2.20;13.40;;;;;;8293490;28;20228;-80
2024/01/05 09:00:05;;;;;;;10.73;6.77;;;2.30;8.20;;;;;;8278038;28;20184;-80
2024/01/05 09:04:10;;;;;;;7.80;5.57;;;2.40;8.30;;;;;;8270428;28;20346;-80
2024/01/05 09:08:11;;;;;;;13.13;11.23;;;2.50;7.40;;;;;;8256693;28;20320;-80
2024/01/05 09:12:12;;;;;;;6.83;5.93;;;2.50;5.10;;;;;;8239573;28;20192;-81
2024/01/05 09:16:12;;;;;;;12.27;10.97;;;2.60;4.50;;;;;;8258236;28;20647;-80
2024/01/05 09:20:13;;;;;;;6.60;4.63;;;2.60;6.50;;;;;;8253758;28;20234;-80
2024/01/05 09:24:14;;;;;;;6.43;5.70;;;2.60;3.50;;;;;;8245373;28;20206;-81
2024/01/05 09:28:15;;;;;;;5.77;4.87;;;2.60;4.20;;;;;;8260277;28;20186;-80
2024/01/05 09:32:15;;;;;;;7.47;6.60;;;2.70;4.20;;;;;;8241132;28;20201;-80
2024/01/05 09:36:16;;;;;;;6.27;5.17;;;2.70;3.70;;;;;;8241114;28;20657;-81
2024/01/05 09:40:20;;;;;;;27.00;15.87;;;2.80;3.80;;;;;;8242905;28;20195;-81
2024/01/05 09:44:22;;;;;;;8.53;7.63;;;2.90;2.80;;;;;;8240989;28;20664;-81
2024/01/05 09:48:24;;;;;;;7.40;6.60;;;2.90;3.70;;;;;;8243182;28;20204;-82
2024/01/05 09:52:25;;;;;;;12.23;9.87;;;3.00;3.40;;;;;;8242087;28;20231;-81
2024/01/05 09:56:26;;;;;;;9.37;8.37;;;3.10;5.20;;;;;;8234040;28;20270;-80
2024/01/05 10:00:28;;;;;;;9.40;7.67;;;3.30;2.70;;;;;;8253991;28;20225;-80
2024/01/05 10:04:29;;;;;;;14.53;9.17;;;3.30;1.00;;;;;;8256102;28;20243;-81
2024/01/05 10:08:32;;;;;;;6.83;5.77;;;3.30;1.00;;;;;;8260018;28;20200;-80
2024/01/05 10:12:33;;;;;;;10.43;8.20;;;3.20;1.00;;;;;;8241444;28;20508;-80
2024/01/05 10:16:36;;;;;;;9.60;7.33;;;3.10;1.00;;;;;;8242737;28;20227;-81
2024/01/05 10:20:41;;;;;;;10.97;7.43;;;3.10;2.80;;;;;;8234380;28;20253;-81
2024/01/05 10:24:42;;;;;;;9.97;7.90;;;3.20;3.40;;;;;;8238382;28;20306;-81
2024/01/05 10:28:43;;;;;;;13.10;10.47;;;3.30;2.80;;;;;;8237419;28;20188;-80
2024/01/05 10:32:44;;;;;;;9.63;7.73;;;3.30;2.90;;;;;;8237329;28;20230;-80
2024/01/05 10:36:44;;;;;;;17.17;11.73;;;3.50;2.00;;;;;;8250964;28;20245;-81
2024/01/05 10:40:47;;;;;;;14.90;10.60;;;3.50;1.00;;;;;;8239674;28;20189;-80
2024/01/05 10:44:51;;;;;;;24.67;16.07;;;3.40;1.00;;;;;;8253718;28;20192;-80
2024/01/05 10:48:53;;;;;;;18.03;11.93;;;3.40;1.00;;;;;;8255257;28;20197;-80
2024/01/05 10:52:54;;;;;;;12.13;9.97;;;3.40;2.50;;;;;;8240111;28;20478;-80
2024/01/05 10:56:56;;;;;;;11.80;8.43;;;3.30;4.20;;;;;;8222575;28;20240;-80
2024/01/05 11:01:00;;;;;;;9.67;7.23;;;3.40;6.30;;;;;;8239453;28;20396;-80
2024/01/05 11:05:08;;;;;;;10.90;8.10;;;3.40;6.30;;;;;;8236851;28;20292;-80
2024/01/05 11:09:24;;;;;;;10.90;7.93;;;3.40;6.70;;;;;;8241124;28;20768;-80
2024/01/05 11:13:55;;;;;;;13.00;8.27;;;3.50;7.60;;;;;;8251862;28;20187;-81
2024/01/05 11:18:28;;;;;;;10.83;8.10;;;3.50;7.70;;;;;;8254813;28;20215;-81
2024/01/05 11:22:35;;;;;;;11.40;7.83;;;3.40;9.20;;;;;;8234478;28;20273;-81
2024/01/05 11:26:42;;;;;;;11.60;7.33;;;3.50;11.60;;;;;;8252864;28;20207;-80
2024/01/05 11:30:45;;;;;;;8.63;7.30;;;3.40;26.00;;;;;;8241853;28;20296;-80
2024/01/05 11:34:45;;;;;;;11.23;7.03;;;3.40;14.90;;;;;;8261523;28;20214;-80
2024/01/05 11:38:47;;;;;;;11.57;7.97;;;3.40;17.70;;;;;;8263295;28;20207;-77
2024/01/05 11:42:47;;;;;;;9.93;7.60;;;3.40;19.70;;;;;;8257322;28;20211;-79
2024/01/05 11:46:54;;;;;;;11.97;8.37;;;3.50;21.00;;;;;;8259636;28;20211;-78
2024/01/05 11:50:57;;;;;;;14.27;9.10;;;3.70;17.40;;;;;;8258497;28;20189;-79
2024/01/05 11:55:18;;;;;;;14.40;9.47;;;3.70;14.80;;;;;;8243868;28;20269;-79
2024/01/05 11:59:18;;;;;;;11.87;8.93;;;3.50;19.30;;;;;;8233581;28;20406;-80
2024/01/05 12:03:22;;;;;;;12.50;8.73;;;3.40;23.40;;;;;;8252508;28;20297;-79
2024/01/05 12:07:23;;;;;;;11.93;8.87;;;3.40;28.90;;;;;;8258484;28;20195;-80
2024/01/05 12:11:27;;;;;;;12.13;7.83;;;3.30;35.10;;;;;;8238079;28;20478;-78
2024/01/05 12:15:28;;;;;;;13.80;9.97;;;3.30;42.70;;;;;;8256603;28;20210;-79
2024/01/05 12:19:29;;;;;;;12.80;9.30;;;3.30;47.10;;;;;;8244233;28;20187;-80
2024/01/05 12:23:30;;;;;;;15.27;10.43;;;3.30;48.70;;;;;;8244569;28;20481;-79
2024/01/05 12:27:38;;;;;;;18.30;11.93;;;3.30;53.90;;;;;;8234162;28;20291;-79
2024/01/05 12:31:41;;;;;;;20.23;11.73;;;3.20;57.30;;;;;;8243645;28;20194;-80
2024/01/05 12:35:43;;;;;;;17.50;11.40;;;3.20;72.20;;;;;;8238087;28;20204;-79
2024/01/05 12:39:44;;;;;;;17.47;12.07;;;3.20;88.90;;;;;;8219995;28;20196;-79
2024/01/05 12:43:46;;;;;;;17.30;10.90;;;3.20;95.30;;;;;;8251178;28;20214;-80
2024/01/05 12:47:47;;;;;;;17.57;10.50;;;3.30;93.80;;;;;;8245401;28;20207;-79
2024/01/05 12:51:48;;;;;;;21.00;12.37;;;3.40;88.30;;;;;;8252832;28;20249;-79
2024/01/05 12:55:49;;;;;;;20.57;13.63;;;3.50;85.80;;;;;;8245015;28;20265;-79
2024/01/05 12:59:50;;;;;;;22.97;16.77;;;3.60;77.90;;;;;;8261781;28;20190;-79
2024/01/05 13:03:55;;;;;;;24.97;15.77;;;3.60;68.60;;;;;;8249421;28;20204;-79
2024/01/05 13:07:59;;;;;;;20.93;12.90;;;3.60;59.80;;;;;;8237582;28;20374;-79
2024/01/05 13:12:04;;;;;;;18.30;12.10;;;3.50;61.00;;;;;;8256556;28;20205;-79
2024/01/05 13:16:05;;;;;;;18.60;13.20;;;3.40;68.10;;;;;;8254338;28;20231;-79
2024/01/05 13:20:07;;;;;;;17.87;13.10;;;3.40;76.50;;;;;;8256702;28;20192;-79
2024/01/05 13:24:08;;;;;;;17.33;12.53;;;3.30;86.70;;;;;;8262115;28;20251;-79
2024/01/05 13:28:08;;;;;;;19.37;14.37;;;3.30;90.00;;;;;;8258220;28;20192;-80
2024/01/05 13:32:09;;;;;;;16.03;11.10;;;3.30;93.50;;;;;;8257965;28;20187;-79
2024/01/05 13:36:10;;;;;;;16.27;10.67;;;3.40;99.90;;;;;;8253021;28;20316;-79
2024/01/05 13:40:11;;;;;;;17.87;11.60;;;3.40;99.90;;;;;;8255375;28;20198;-79
2024/01/05 13:44:12;;;;;;;18.37;13.17;;;3.50;99.90;;;;;;8258085;28;20191;-79
2024/01/05 13:48:13;;;;;;;19.30;12.47;;;3.50;98.10;;;;;;8233124;28;20194;-79
2024/01/05 13:52:13;;;;;;;19.50;13.00;;;3.40;99.90;;;;;;8237932;28;20195;-78
2024/01/05 13:56:15;;;;;;;17.10;12.57;;;3.50;99.10;;;;;;8242924;28;20223;-80
2024/01/05 14:00:16;;;;;;;22.10;14.90;;;3.50;99.30;;;;;;8237096;28;20191;-78
2024/01/05 14:04:16;;;;;;;17.47;12.20;;;3.50;98.40;;;;;;8235544;28;20219;-78
2024/01/05 14:08:18;;;;;;;15.87;11.80;;;3.50;99.90;;;;;;8231803;28;20209;-79
2024/01/05 14:12:19;;;;;;;15.93;11.90;;;3.40;99.90;;;;;;8237843;28;20522;-79
2024/01/05 14:16:20;;;;;;;18.30;12.00;;;3.40;99.90;;;;;;8236527;28;20232;-79
2024/01/05 14:20:21;;;;;;;19.57;13.40;;;3.40;99.90;;;;;;8254167;28;20207;-80
2024/01/05 14:24:23;;;;;;;58.57;42.60;;;3.30;99.90;;;;;;8234353;28;20592;-78
2024/01/05 14:28:24;;;;;;;38.90;16.37;;;3.20;99.90;;;;;;8237475;28;20642;-78
2024/01/05 14:32:25;;;;;;;22.43;14.10;;;3.10;99.90;;;;;;8247183;28;20180;-79
2024/01/05 14:36:26;;;;;;;39.97;18.43;;;3.00;99.90;;;;;;8244975;28;20219;-79
2024/01/05 14:40:27;;;;;;;26.30;16.53;;;2.90;99.90;;;;;;8262025;28;20195;-79
2024/01/05 14:44:28;;;;;;;34.10;17.53;;;2.80;99.90;;;;;;8292236;28;20186;-80
2024/01/05 14:48:31;;;;;;;23.17;12.80;;;2.70;99.90;;;;;;8258277;28;20195;-79
2024/01/05 14:52:32;;;;;;;23.00;12.97;;;2.60;99.90;;;;;;8251972;28;20191;-80
2024/01/05 14:56:32;;;;;;;68.37;40.87;;;2.60;99.90;;;;;;8248510;28;20247;-79
2024/01/05 15:00:33;;;;;;;80.70;33.73;;;2.50;99.90;;;;;;8252780;28;20279;-80
2024/01/05 15:04:34;;;;;;;25.23;14.43;;;2.50;99.90;;;;;;8250014;28;20200;-78
2024/01/05 15:08:36;;;;;;;20.80;14.20;;;2.50;99.90;;;;;;8232357;28;20200;-81
2024/01/05 15:12:37;;;;;;;23.97;15.50;;;2.50;1.00;;;;;;8229346;28;20196;-81
2024/01/05 15:16:40;;;;;;;31.10;19.27;;;2.50;1.00;;;;;;8229274;28;20226;-82
2024/01/05 15:20:43;;;;;;;27.20;16.73;;;2.40;1.00;;;;;;8230959;28;21525;-81
2024/01/05 15:24:45;;;;;;;25.13;16.80;;;2.40;1.00;;;;;;8231321;28;20279;-81
2024/01/05 15:28:46;;;;;;;20.13;14.03;;;2.40;1.00;;;;;;8245624;28;20193;-81
2024/01/05 15:32:47;;;;;;;22.87;15.03;;;2.30;1.00;;;;;;8230778;28;20196;-81
2024/01/05 15:36:51;;;;;;;23.70;15.67;;;2.30;77.30;;;;;;8244755;28;20221;-81
2024/01/05 15:40:51;;;;;;;24.03;15.40;;;2.30;99.90;;;;;;8233978;28;20390;-81
2024/01/05 15:44:52;;;;;;;27.13;16.90;;;2.30;99.90;;;;;;8250089;28;20208;-81
2024/01/05 15:48:53;;;;;;;27.07;15.90;;;2.30;1.00;;;;;;8247353;28;20409;-81
2024/01/05 15:52:54;;;;;;;25.83;16.97;;;2.40;1.00;;;;;;8233598;28;20192;-81
2024/01/05 15:56:55;;;;;;;27.97;17.83;;;2.40;1.00;;;;;;8225732;28;20218;-81
2024/01/05 16:00:56;;;;;;;32.20;19.33;;;2.40;1.00;;;;;;8229732;28;20199;-81
2024/01/05 16:04:59;;;;;;;30.63;19.27;;;2.40;95.10;;;;;;8247201;28;20196;-81
2024/01/05 16:09:00;;;;;;;29.43;19.23;;;2.40;36.10;;;;;;8229619;28;20188;-81
2024/01/05 16:13:01;;;;;;;37.67;26.63;;;2.50;44.90;;;;;;8245807;28;21565;-81
2024/01/05 16:17:02;;;;;;;124.80;52.43;;;2.50;17.00;;;;;;8233698;28;20257;-80
2024/01/05 16:21:04;;;;;;;36.23;22.40;;;2.40;1.00;;;;;;8229641;28;20581;-80
2024/01/05 16:25:05;;;;;;;37.10;24.13;;;2.40;59.60;;;;;;8260693;28;20200;-81
2024/01/05 16:29:07;;;;;;;37.10;24.17;;;2.40;99.90;;;;;;8234020;28;20226;-80
2024/01/05 16:33:07;;;;;;;51.23;35.77;;;2.40;99.90;;;;;;8239421;28;20215;-80
2024/01/05 16:37:11;;;;;;;37.93;25.33;;;2.40;99.90;;;;;;8250819;28;20221;-79
2024/01/05 16:41:13;;;;;;;40.57;26.13;;;2.40;99.90;;;;;;8234487;28;20255;-81
2024/01/05 16:45:16;;;;;;;37.53;24.37;;;2.40;1.00;;;;;;8240365;28;20355;-81
2024/01/05 16:49:18;;;;;;;40.80;25.23;;;2.40;15.00;;;;;;8233665;28;20207;-81
2024/01/05 16:53:19;;;;;;;39.87;25.37;;;2.30;99.90;;;;;;8235508;28;20530;-82
2024/01/05 16:57:20;;;;;;;38.33;24.87;;;2.30;1.00;;;;;;8238489;28;20543;-82
2024/01/05 17:01:25;;;;;;;44.90;28.90;;;2.30;1.00;;;;;;8223708;28;20242;-82
2024/01/05 17:05:25;;;;;;;51.97;33.60;;;2.30;99.90;;;;;;8228845;28;20263;-82
2024/01/05 17:09:26;;;;;;;81.87;47.63;;;2.30;99.90;;;;;;8222489;28;20191;-82
2024/01/05 17:13:27;;;;;;;66.93;39.00;;;2.30;78.00;;;;;;8233309;28;20188;-82
2024/01/05 17:17:31;;;;;;;56.33;34.33;;;2.30;99.90;;;;;;8249126;28;20228;-82
2024/01/05 17:21:32;;;;;;;42.00;26.63;;;2.30;99.90;;;;;;8249928;28;20192;-81
2024/01/05 17:25:33;;;;;;;57.60;35.33;;;2.30;1.00;;;;;;8275774;28;20196;-82
2024/01/05 17:29:35;;;;;;;97.83;66.03;;;2.30;99.90;;;;;;8293784;28;20191;-80
2024/01/05 17:33:35;;;;;;;54.50;31.60;;;2.40;1.00;;;;;;8276408;28;20266;-82
2024/01/05 17:37:36;;;;;;;48.60;28.13;;;2.40;99.90;;;;;;8293583;28;20240;-80
2024/01/05 17:41:38;;;;;;;55.57;30.87;;;2.40;1.00;;;;;;8259550;28;20192;-80
2024/01/05 17:45:39;;;;;;;65.20;34.67;;;2.50;1.00;;;;;;8251869;28;20191;-81
2024/01/05 17:49:40;;;;;;;54.20;29.50;;;2.60;1.00;;;;;;8251735;28;20184;-82
2024/01/05 17:53:42;;;;;;;56.03;31.63;;;2.60;99.90;;;;;;8244572;28;20234;-82
2024/01/05 17:57:43;;;;;;;49.23;28.70;;;2.60;99.90;;;;;;8270916;28;20212;-82
2024/01/05 18:01:45;;;;;;;45.40;26.67;;;2.70;23.40;;;;;;8244684;28;20201;-82
2024/01/05 18:05:46;;;;;;;41.90;25.90;;;2.80;1.00;;;;;;8240260;28;20179;-82
2024/01/05 18:09:47;;;;;;;59.73;31.60;;;2.80;99.90;;;;;;8235545;28;20260;-82
2024/01/05 18:13:48;;;;;;;69.00;37.23;;;2.80;99.90;;;;;;8238092;28;20256;-82
2024/01/05 18:17:49;;;;;;;135.73;60.90;;;2.80;1.00;;;;;;8253040;28;20302;-83
2024/01/05 18:21:51;;;;;;;101.23;50.17;;;2.80;1.00;;;;;;8254533;28;20187;-83
2024/01/05 18:25:52;;;;;;;116.60;52.97;;;2.80;99.90;;;;;;8257347;28;20198;-82
2024/01/05 18:29:58;;;;;;;69.63;36.73;;;2.90;99.90;;;;;;8256436;28;20215;-83
2024/01/05 18:34:12;;;;;;;102.93;42.00;;;2.90;99.90;;;;;;8261972;28;20187;-82
2024/01/05 18:38:14;;;;;;;118.73;51.87;;;2.90;1.00;;;;;;8254672;28;20208;-82
2024/01/05 18:42:14;;;;;;;124.70;49.47;;;2.90;1.00;;;;;;8239591;28;20193;-82
2024/01/05 18:46:16;;;;;;;99.40;45.07;;;2.90;1.00;;;;;;8255638;28;20210;-81
2024/01/05 18:50:17;;;;;;;71.03;36.03;;;2.90;1.00;;;;;;8240344;28;20192;-81
2024/01/05 18:54:17;;;;;;;66.67;36.63;;;2.90;1.00;;;;;;8256272;28;20793;-82
2024/01/05 18:58:21;;;;;;;51.97;31.23;;;2.80;7.90;;;;;;8239608;28;20209;-83
2024/01/05 19:02:22;;;;;;;70.10;37.57;;;2.80;14.30;;;;;;8240928;28;20204;-81
2024/01/05 19:06:23;;;;;;;70.90;37.10;;;2.80;16.20;;;;;;8231675;28;20191;-82
2024/01/05 19:10:29;;;;;;;65.57;37.10;;;2.80;19.20;;;;;;8243038;28;20189;-82
2024/01/05 19:14:30;;;;;;;70.53;42.23;;;2.70;26.20;;;;;;8238951;28;20246;-81
2024/01/05 19:18:31;;;;;;;66.47;38.63;;;2.70;77.40;;;;;;8240578;28;20192;-81
2024/01/05 19:22:40;;;;;;;100.50;49.43;;;2.60;99.90;;;;;;8238938;28;20351;-81
2024/01/05 19:26:42;;;;;;;66.37;37.93;;;2.60;99.90;;;;;;8250703;28;20190;-82
2024/01/05 19:30:43;;;;;;;61.27;34.83;;;2.60;99.90;;;;;;8233845;28;20281;-82
2024/01/05 19:34:44;;;;;;;67.70;38.67;;;2.60;99.90;;;;;;8250755;28;20244;-82
2024/01/05 19:38:45;;;;;;;63.33;38.40;;;2.50;99.90;;;;;;8235165;28;20219;-82
2024/01/05 19:42:48;;;;;;;71.17;41.60;;;2.50;99.90;;;;;;8232323;28;20209;-82
2024/01/05 19:46:49;;;;;;;81.60;44.87;;;2.50;99.90;;;;;;8234876;28;20236;-82
2024/01/05 19:50:50;;;;;;;69.13;37.57;;;2.60;99.90;;;;;;8247125;28;20205;-82
2024/01/05 19:55:00;;;;;;;79.37;41.30;;;2.50;99.90;;;;;;8227720;28;20223;-82
2024/01/05 19:59:01;;;;;;;99.83;47.23;;;2.50;99.90;;;;;;8240114;28;20201;-82
2024/01/05 20:03:05;;;;;;;123.70;61.37;;;2.50;99.90;;;;;;8247024;28;20200;-82
2024/01/05 20:07:06;;;;;;;148.30;72.07;;;2.50;99.90;;;;;;8230126;28;20275;-82
2024/01/05 20:11:13;;;;;;;118.40;63.53;;;2.50;99.90;;;;;;8233736;28;20195;-82
2024/01/05 20:15:14;;;;;;;112.10;58.47;;;2.50;1.00;;;;;;8230704;28;20211;-82
2024/01/05 20:19:16;;;;;;;122.33;64.60;;;2.60;1.00;;;;;;8250425;28;20225;-82
2024/01/05 20:23:18;;;;;;;88.63;48.97;;;2.60;1.00;;;;;;8235832;28;20185;-81
2024/01/05 20:27:22;;;;;;;96.00;53.87;;;2.70;1.00;;;;;;8259524;28;20195;-81
2024/01/05 20:31:25;;;;;;;146.93;75.53;;;2.70;99.90;;;;;;8267920;28;20184;-82
2024/01/05 20:35:26;;;;;;;129.77;65.37;;;2.70;99.90;;;;;;8277470;28;20221;-82
2024/01/05 20:39:27;;;;;;;99.67;53.03;;;2.70;99.90;;;;;;8271461;28;20255;-83
2024/01/05 20:43:28;;;;;;;96.27;51.77;;;2.70;99.90;;;;;;8274862;28;20177;-81
2024/01/05 20:47:29;;;;;;;72.00;43.57;;;2.70;99.90;;;;;;8281438;28;20230;-82
2024/01/05 20:51:30;;;;;;;55.83;32.37;;;2.70;99.90;;;;;;8247238;28;20191;-81
2024/01/05 20:55:31;;;;;;;43.47;26.00;;;2.70;99.90;;;;;;8233324;28;20300;-82